createdAt,value
2023-03-25T00:00:39.749Z,8.60
2023-03-25T00:06:41.577Z,8.50
2023-03-25T00:12:43.603Z,8.50
2023-03-25T00:18:47.945Z,8.50
2023-03-25T00:24:49.801Z,8.50
2023-03-25T00:30:53.982Z,8.60
2023-03-25T00:36:56.646Z,8.70
2023-03-25T00:42:58.679Z,8.80
2023-03-25T00:49:01.209Z,8.90
2023-03-25T00:55:04.734Z,8.90
2023-03-25T01:01:13.460Z,8.90
2023-03-25T01:07:20.392Z,8.80
2023-03-25T01:13:23.599Z,8.80
2023-03-25T01:19:25.923Z,8.80
2023-03-25T01:25:27.816Z,8.60
2023-03-25T01:31:30.585Z,8.60
2023-03-25T01:37:34.151Z,8.50
2023-03-25T01:43:36.429Z,8.50
2023-03-25T01:49:44.538Z,8.50
2023-03-25T01:55:47.826Z,8.50
2023-03-25T02:01:49.712Z,8.60
2023-03-25T02:07:54.681Z,8.60
2023-03-25T02:14:02.379Z,8.60
2023-03-25T02:20:16.180Z,8.60
2023-03-25T02:26:36.667Z,8.50
2023-03-25T02:33:16.566Z,8.60
2023-03-25T02:39:32.128Z,8.60
2023-03-25T02:45:44.817Z,8.60
2023-03-25T02:51:53.646Z,8.50
2023-03-25T02:57:57.316Z,8.60
2023-03-25T03:03:59.323Z,8.60
2023-03-25T03:10:19.532Z,8.50
2023-03-25T03:16:34.224Z,8.60
2023-03-25T03:22:52.980Z,8.40
2023-03-25T03:29:19.205Z,8.40
2023-03-25T03:35:31.697Z,8.40
2023-03-25T03:41:36.079Z,8.40
2023-03-25T03:47:43.090Z,8.20
2023-03-25T03:53:54.712Z,8.20
2023-03-25T04:00:13.304Z,8.10
2023-03-25T04:06:25.107Z,8.20
2023-03-25T04:12:37.642Z,8.20
2023-03-25T04:18:39.918Z,8.00
2023-03-25T04:24:41.961Z,7.70
2023-03-25T04:30:48.771Z,7.50
2023-03-25T04:36:51.303Z,7.30
2023-03-25T04:42:53.432Z,7.20
2023-03-25T04:48:57.212Z,7.20
2023-03-25T04:54:59.555Z,7.40
2023-03-25T05:01:06.090Z,7.50
2023-03-25T05:07:08.754Z,7.50
2023-03-25T05:13:11.383Z,7.50
2023-03-25T05:19:14.906Z,7.60
2023-03-25T05:25:18.384Z,7.70
2023-03-25T05:31:20.354Z,7.80
2023-03-25T05:37:22.623Z,7.80
2023-03-25T05:43:26.085Z,7.80
2023-03-25T05:49:28.804Z,7.90
2023-03-25T05:55:30.758Z,7.90
2023-03-25T06:01:38.411Z,7.90
2023-03-25T06:07:46.156Z,7.90
2023-03-25T06:13:51.603Z,8.00
2023-03-25T06:19:53.475Z,8.10
2023-03-25T06:25:56.183Z,8.10
2023-03-25T06:31:58.053Z,8.10
2023-03-25T06:38:01.609Z,8.20
2023-03-25T06:44:04.006Z,8.20
2023-03-25T06:50:06.718Z,8.20
2023-03-25T06:56:08.885Z,8.00
2023-03-25T07:02:14.705Z,7.90
2023-03-25T07:08:16.545Z,7.90
2023-03-25T07:14:18.622Z,8.00
2023-03-25T07:20:20.496Z,8.20
2023-03-25T07:26:22.380Z,8.40
2023-03-25T07:32:24.501Z,8.50
2023-03-25T07:38:26.679Z,8.40
2023-03-25T07:44:29.286Z,8.40
2023-03-25T07:50:31.443Z,8.50
2023-03-25T07:56:34.110Z,8.40
2023-03-25T08:02:36.001Z,8.40
2023-03-25T08:08:38.098Z,8.20
2023-03-25T08:14:39.941Z,8.00
2023-03-25T08:20:42.001Z,8.00
2023-03-25T08:26:44.103Z,8.00
2023-03-25T08:32:54.824Z,8.10
2023-03-25T08:38:57.343Z,8.00
2023-03-25T08:44:59.132Z,7.90
2023-03-25T08:51:01.875Z,7.90
2023-03-25T08:57:04.061Z,8.20
2023-03-25T09:03:06.485Z,8.40
2023-03-25T09:09:10.899Z,8.60
2023-03-25T09:15:13.081Z,8.70
2023-03-25T09:21:15.022Z,8.90
2023-03-25T09:27:16.928Z,9.10
2023-03-25T09:33:19.307Z,9.30
2023-03-25T09:39:22.441Z,9.40
2023-03-25T09:45:41.909Z,9.40
2023-03-25T09:51:47.569Z,10.20
2023-03-25T09:57:55.149Z,10.50
2023-03-25T10:04:08.237Z,10.50
2023-03-25T10:10:35.016Z,10.20
2023-03-25T10:16:55.383Z,10.10
2023-03-25T10:23:09.266Z,9.80
2023-03-25T10:29:16.232Z,9.70
2023-03-25T10:35:35.616Z,9.50
2023-03-25T10:41:40.189Z,9.80
2023-03-25T10:47:44.621Z,10.30
2023-03-25T10:53:53.235Z,10.30
2023-03-25T11:00:12.865Z,9.90
2023-03-25T11:06:31.841Z,10.10
2023-03-25T11:12:42.839Z,10.50
2023-03-25T11:18:46.596Z,10.90
2023-03-25T11:24:54.854Z,11.00
2023-03-25T11:31:27.503Z,11.10
2023-03-25T11:37:33.118Z,11.20
2023-03-25T11:43:39.079Z,11.30
2023-03-25T11:49:41.545Z,11.70
2023-03-25T11:55:50.893Z,11.10
2023-03-25T12:02:03.118Z,11.00
2023-03-25T12:08:18.816Z,11.30
2023-03-25T12:14:48.278Z,11.10
2023-03-25T12:21:00.646Z,11.60
2023-03-25T12:27:11.290Z,11.30
2023-03-25T12:33:30.357Z,11.30
2023-03-25T12:39:43.537Z,11.00
2023-03-25T12:45:53.192Z,10.60
2023-03-25T12:52:09.300Z,10.60
2023-03-25T12:58:19.967Z,10.40
2023-03-25T13:04:34.878Z,9.80
2023-03-25T13:10:39.933Z,9.60
2023-03-25T13:16:47.941Z,9.30
2023-03-25T13:22:57.998Z,9.50
2023-03-25T13:28:59.739Z,9.50
2023-03-25T13:35:13.917Z,9.60
2023-03-25T13:42:03.156Z,9.40
2023-03-25T13:48:12.152Z,9.30
2023-03-25T13:54:33.187Z,9.30
2023-03-25T14:00:44.166Z,9.40
2023-03-25T14:07:07.212Z,9.40
2023-03-25T14:13:17.794Z,9.20
2023-03-25T14:19:50.073Z,9.10
2023-03-25T14:25:58.356Z,9.00
2023-03-25T14:32:18.499Z,8.70
2023-03-25T14:38:22.121Z,8.10
2023-03-25T14:44:29.338Z,8.20
2023-03-25T14:50:33.531Z,8.40
2023-03-25T14:56:46.714Z,8.60
2023-03-25T15:02:59.211Z,8.70
2023-03-25T15:09:09.763Z,8.60
2023-03-25T15:15:33.770Z,8.50
2023-03-25T15:21:58.248Z,8.40
2023-03-25T15:28:11.191Z,8.30
2023-03-25T15:34:19.526Z,8.30
2023-03-25T15:40:41.014Z,8.60
2023-03-25T15:47:07.265Z,9.00
2023-03-25T15:53:41.877Z,9.30
2023-03-25T15:59:52.044Z,9.30
2023-03-25T16:05:56.889Z,9.40
2023-03-25T16:12:00.671Z,9.30
2023-03-25T16:18:06.836Z,9.40
2023-03-25T16:24:12.345Z,9.40
2023-03-25T16:30:32.769Z,9.30
2023-03-25T16:36:34.737Z,9.20
2023-03-25T16:42:37.492Z,9.10
2023-03-25T16:48:41.925Z,9.00
2023-03-25T16:54:47.381Z,9.00
2023-03-25T17:00:52.395Z,9.00
2023-03-25T17:07:00.897Z,8.90
2023-03-25T17:13:10.052Z,8.90
2023-03-25T17:19:16.764Z,8.80
2023-03-25T17:25:27.897Z,8.80
2023-03-25T17:31:41.040Z,8.80
2023-03-25T17:37:42.915Z,8.70
2023-03-25T17:43:54.553Z,8.90
2023-03-25T17:49:57.385Z,8.90
2023-03-25T17:56:03.274Z,8.70
2023-03-25T18:02:15.012Z,8.40
2023-03-25T18:08:17.327Z,8.10
2023-03-25T18:14:20.370Z,7.80
2023-03-25T18:20:28.159Z,7.70
2023-03-25T18:26:29.955Z,7.60
2023-03-25T18:32:31.841Z,7.50
2023-03-25T18:38:33.655Z,7.50
2023-03-25T18:44:35.668Z,7.50
2023-03-25T18:50:39.833Z,7.40
2023-03-25T18:56:42.231Z,7.50
2023-03-25T19:02:44.161Z,7.40
2023-03-25T19:08:47.544Z,7.50
2023-03-25T19:14:49.408Z,7.60
2023-03-25T19:20:51.541Z,7.60
2023-03-25T19:26:53.478Z,7.50
2023-03-25T19:32:57.488Z,7.50
2023-03-25T19:39:05.626Z,7.60
2023-03-25T19:45:11.760Z,7.60
2023-03-25T19:51:13.874Z,7.60
2023-03-25T19:57:15.791Z,7.50
2023-03-25T20:03:22.167Z,7.40
2023-03-25T20:09:24.782Z,7.30
2023-03-25T20:15:27.422Z,7.30
2023-03-25T20:21:29.565Z,7.40
2023-03-25T20:27:31.801Z,7.40
2023-03-25T20:33:33.764Z,7.40
2023-03-25T20:39:36.562Z,7.40
2023-03-25T20:45:38.520Z,7.40
2023-03-25T20:51:41.749Z,7.50
2023-03-25T20:57:44.058Z,7.40
2023-03-25T21:03:46.158Z,7.30
2023-03-25T21:09:48.013Z,7.30
2023-03-25T21:15:55.488Z,7.40
2023-03-25T21:21:57.652Z,7.50
2023-03-25T21:28:01.640Z,7.70
2023-03-25T21:34:03.839Z,7.60
2023-03-25T21:40:08.273Z,7.40
2023-03-25T21:46:11.000Z,7.50
2023-03-25T21:52:13.524Z,7.60
2023-03-25T21:58:15.775Z,7.50
2023-03-25T22:04:18.019Z,7.60
2023-03-25T22:10:19.833Z,7.60
2023-03-25T22:16:23.629Z,7.60
2023-03-25T22:22:25.657Z,7.50
2023-03-25T22:28:27.571Z,7.50
2023-03-25T22:34:30.812Z,7.50
2023-03-25T22:40:34.260Z,7.40
2023-03-25T22:46:36.502Z,7.40
2023-03-25T22:52:41.501Z,7.40
2023-03-25T22:58:43.519Z,7.40
2023-03-25T23:04:45.981Z,7.40
2023-03-25T23:10:47.709Z,7.40
2023-03-25T23:16:49.547Z,7.50
2023-03-25T23:22:51.362Z,7.50
2023-03-25T23:29:01.840Z,7.50
2023-03-25T23:35:03.880Z,7.50
2023-03-25T23:41:11.080Z,7.40
2023-03-25T23:47:12.862Z,7.30
2023-03-25T23:53:14.676Z,7.40
2023-03-25T23:59:16.852Z,7.40
